Terminal Aerodrome Forecast
Issued by NWS

Home | Current Version | Previous Version | Text Only | Print | Product List | Glossary On
Versions: 1 2 3 4 5 6 7 8 9 10 11 12 13 14 15 16
000
FTUS41 KLWX 281129
TAFMTN
TAF
KMTN 281129Z 2812/2912 00000KT P6SM FEW150
     FM281900 16006KT P6SM VCTS SCT050CB BKN150
     FM282300 VRB05KT P6SM SCT080
      TEMPO 2909/2912 5SM BR SCT030 SCT080=

USA.gov is the U.S. government's official web portal to all federal, state and local government web resources and services.